sensor_id;sensor_type;location;lat;lon;timestamp;P1;durP1;ratioP1;P2;durP2;ratioP2
13764;SDS011;6953;48.810;9.204;2023-03-23T00:01:25;0.40;;;0.40;;
13764;SDS011;6953;48.810;9.204;2023-03-23T00:03:55;0.60;;;0.60;;
13764;SDS011;6953;48.810;9.204;2023-03-23T00:06:22;0.50;;;0.50;;
13764;SDS011;6953;48.810;9.204;2023-03-23T00:08:52;0.47;;;0.47;;
13764;SDS011;6953;48.810;9.204;2023-03-23T00:11:24;0.43;;;0.43;;
13764;SDS011;6953;48.810;9.204;2023-03-23T00:13:54;0.30;;;0.30;;
13764;SDS011;6953;48.810;9.204;2023-03-23T00:16:22;0.50;;;0.50;;
13764;SDS011;6953;48.810;9.204;2023-03-23T00:19:00;0.50;;;0.50;;
13764;SDS011;6953;48.810;9.204;2023-03-23T00:21:29;0.40;;;0.40;;
13764;SDS011;6953;48.810;9.204;2023-03-23T00:24:32;0.30;;;0.30;;
13764;SDS011;6953;48.810;9.204;2023-03-23T00:26:51;0.40;;;0.40;;
13764;SDS011;6953;48.810;9.204;2023-03-23T00:29:19;0.40;;;0.40;;
13764;SDS011;6953;48.810;9.204;2023-03-23T00:31:48;0.43;;;0.43;;
13764;SDS011;6953;48.810;9.204;2023-03-23T00:34:15;0.40;;;0.40;;
13764;SDS011;6953;48.810;9.204;2023-03-23T00:36:50;0.40;;;0.40;;
13764;SDS011;6953;48.810;9.204;2023-03-23T00:39:18;0.40;;;0.40;;
13764;SDS011;6953;48.810;9.204;2023-03-23T00:41:44;0.50;;;0.50;;
13764;SDS011;6953;48.810;9.204;2023-03-23T00:44:12;0.35;;;0.35;;
13764;SDS011;6953;48.810;9.204;2023-03-23T00:46:45;0.38;;;0.38;;
13764;SDS011;6953;48.810;9.204;2023-03-23T00:49:13;0.40;;;0.40;;
13764;SDS011;6953;48.810;9.204;2023-03-23T00:51:41;0.50;;;0.50;;
13764;SDS011;6953;48.810;9.204;2023-03-23T00:54:07;0.60;;;0.60;;
13764;SDS011;6953;48.810;9.204;2023-03-23T00:56:33;0.60;;;0.60;;
13764;SDS011;6953;48.810;9.204;2023-03-23T00:58:59;0.40;;;0.40;;
13764;SDS011;6953;48.810;9.204;2023-03-23T01:01:24;0.50;;;0.50;;
13764;SDS011;6953;48.810;9.204;2023-03-23T01:03:49;0.47;;;0.47;;
13764;SDS011;6953;48.810;9.204;2023-03-23T01:06:15;0.50;;;0.50;;
13764;SDS011;6953;48.810;9.204;2023-03-23T01:08:41;0.50;;;0.50;;
13764;SDS011;6953;48.810;9.204;2023-03-23T01:11:10;0.43;;;0.43;;
13764;SDS011;6953;48.810;9.204;2023-03-23T01:13:43;0.57;;;0.57;;
13764;SDS011;6953;48.810;9.204;2023-03-23T01:16:09;0.50;;;0.50;;
13764;SDS011;6953;48.810;9.204;2023-03-23T01:18:36;0.50;;;0.50;;
13764;SDS011;6953;48.810;9.204;2023-03-23T01:21:20;0.43;;;0.43;;
13764;SDS011;6953;48.810;9.204;2023-03-23T01:23:46;0.50;;;0.50;;
13764;SDS011;6953;48.810;9.204;2023-03-23T01:26:13;0.60;;;0.60;;
13764;SDS011;6953;48.810;9.204;2023-03-23T01:28:47;0.50;;;0.50;;
13764;SDS011;6953;48.810;9.204;2023-03-23T01:31:14;0.57;;;0.57;;
13764;SDS011;6953;48.810;9.204;2023-03-23T01:33:41;0.50;;;0.50;;
13764;SDS011;6953;48.810;9.204;2023-03-23T01:36:10;0.45;;;0.45;;
13764;SDS011;6953;48.810;9.204;2023-03-23T01:38:37;0.60;;;0.60;;
13764;SDS011;6953;48.810;9.204;2023-03-23T01:41:03;0.40;;;0.40;;
13764;SDS011;6953;48.810;9.204;2023-03-23T01:43:29;0.50;;;0.50;;
13764;SDS011;6953;48.810;9.204;2023-03-23T01:45:54;0.50;;;0.50;;
13764;SDS011;6953;48.810;9.204;2023-03-23T01:48:22;0.60;;;0.60;;
13764;SDS011;6953;48.810;9.204;2023-03-23T01:53:38;0.50;;;0.50;;
13764;SDS011;6953;48.810;9.204;2023-03-23T01:56:07;0.50;;;0.50;;
13764;SDS011;6953;48.810;9.204;2023-03-23T01:58:38;0.50;;;0.50;;
13764;SDS011;6953;48.810;9.204;2023-03-23T02:01:06;0.52;;;0.52;;
13764;SDS011;6953;48.810;9.204;2023-03-23T02:03:36;0.40;;;0.40;;
13764;SDS011;6953;48.810;9.204;2023-03-23T02:06:04;0.50;;;0.50;;
13764;SDS011;6953;48.810;9.204;2023-03-23T02:08:30;0.50;;;0.50;;
13764;SDS011;6953;48.810;9.204;2023-03-23T02:10:57;0.50;;;0.50;;
13764;SDS011;6953;48.810;9.204;2023-03-23T02:13:23;0.50;;;0.50;;
13764;SDS011;6953;48.810;9.204;2023-03-23T02:15:52;0.50;;;0.50;;
13764;SDS011;6953;48.810;9.204;2023-03-23T02:24:30;0.40;;;0.40;;
13764;SDS011;6953;48.810;9.204;2023-03-23T02:32:53;0.50;;;0.50;;
13764;SDS011;6953;48.810;9.204;2023-03-23T02:35:43;0.50;;;0.50;;
13764;SDS011;6953;48.810;9.204;2023-03-23T02:38:20;0.40;;;0.40;;
13764;SDS011;6953;48.810;9.204;2023-03-23T02:40:51;0.50;;;0.50;;
13764;SDS011;6953;48.810;9.204;2023-03-23T02:43:23;0.50;;;0.50;;
13764;SDS011;6953;48.810;9.204;2023-03-23T02:45:51;0.60;;;0.60;;
13764;SDS011;6953;48.810;9.204;2023-03-23T02:48:18;0.50;;;0.50;;
13764;SDS011;6953;48.810;9.204;2023-03-23T02:50:49;0.50;;;0.50;;
13764;SDS011;6953;48.810;9.204;2023-03-23T02:53:19;0.60;;;0.60;;
13764;SDS011;6953;48.810;9.204;2023-03-23T02:55:49;0.50;;;0.50;;
13764;SDS011;6953;48.810;9.204;2023-03-23T02:58:17;0.50;;;0.50;;
13764;SDS011;6953;48.810;9.204;2023-03-23T03:00:43;0.50;;;0.50;;
13764;SDS011;6953;48.810;9.204;2023-03-23T03:03:11;0.50;;;0.50;;
13764;SDS011;6953;48.810;9.204;2023-03-23T03:05:41;0.50;;;0.50;;
13764;SDS011;6953;48.810;9.204;2023-03-23T03:10:52;0.55;;;0.55;;
13764;SDS011;6953;48.810;9.204;2023-03-23T03:18:58;0.50;;;0.50;;
13764;SDS011;6953;48.810;9.204;2023-03-23T03:21:29;0.50;;;0.50;;
13764;SDS011;6953;48.810;9.204;2023-03-23T03:23:58;0.50;;;0.50;;
13764;SDS011;6953;48.810;9.204;2023-03-23T03:26:26;0.60;;;0.60;;
13764;SDS011;6953;48.810;9.204;2023-03-23T03:28:54;0.45;;;0.45;;
13764;SDS011;6953;48.810;9.204;2023-03-23T03:31:21;0.50;;;0.50;;
13764;SDS011;6953;48.810;9.204;2023-03-23T03:33:51;0.50;;;0.50;;
13764;SDS011;6953;48.810;9.204;2023-03-23T03:36:18;0.50;;;0.50;;
13764;SDS011;6953;48.810;9.204;2023-03-23T03:38:49;0.50;;;0.50;;
13764;SDS011;6953;48.810;9.204;2023-03-23T03:41:16;0.60;;;0.60;;
13764;SDS011;6953;48.810;9.204;2023-03-23T03:43:42;0.50;;;0.50;;
13764;SDS011;6953;48.810;9.204;2023-03-23T03:46:08;0.50;;;0.50;;
13764;SDS011;6953;48.810;9.204;2023-03-23T03:48:33;0.50;;;0.50;;
13764;SDS011;6953;48.810;9.204;2023-03-23T03:50:59;0.50;;;0.50;;
13764;SDS011;6953;48.810;9.204;2023-03-23T03:53:25;0.60;;;0.60;;
13764;SDS011;6953;48.810;9.204;2023-03-23T03:55:51;0.50;;;0.50;;
13764;SDS011;6953;48.810;9.204;2023-03-23T03:58:20;0.50;;;0.50;;
13764;SDS011;6953;48.810;9.204;2023-03-23T04:00:46;0.55;;;0.55;;
13764;SDS011;6953;48.810;9.204;2023-03-23T04:03:12;0.50;;;0.50;;
13764;SDS011;6953;48.810;9.204;2023-03-23T04:05:38;0.60;;;0.60;;
13764;SDS011;6953;48.810;9.204;2023-03-23T04:08:04;0.50;;;0.50;;
13764;SDS011;6953;48.810;9.204;2023-03-23T04:10:30;0.60;;;0.60;;
13764;SDS011;6953;48.810;9.204;2023-03-23T04:12:56;0.50;;;0.50;;
13764;SDS011;6953;48.810;9.204;2023-03-23T04:15:22;0.50;;;0.50;;
13764;SDS011;6953;48.810;9.204;2023-03-23T04:17:47;0.50;;;0.50;;
13764;SDS011;6953;48.810;9.204;2023-03-23T04:20:13;0.57;;;0.57;;
13764;SDS011;6953;48.810;9.204;2023-03-23T04:22:42;0.60;;;0.60;;
13764;SDS011;6953;48.810;9.204;2023-03-23T04:25:15;0.50;;;0.50;;
13764;SDS011;6953;48.810;9.204;2023-03-23T04:27:45;0.60;;;0.60;;
13764;SDS011;6953;48.810;9.204;2023-03-23T04:30:17;0.50;;;0.50;;
13764;SDS011;6953;48.810;9.204;2023-03-23T04:32:47;0.50;;;0.50;;
13764;SDS011;6953;48.810;9.204;2023-03-23T04:35:20;0.60;;;0.60;;
13764;SDS011;6953;48.810;9.204;2023-03-23T04:37:47;0.40;;;0.40;;
13764;SDS011;6953;48.810;9.204;2023-03-23T04:40:13;0.50;;;0.50;;
13764;SDS011;6953;48.810;9.204;2023-03-23T04:42:41;0.50;;;0.50;;
13764;SDS011;6953;48.810;9.204;2023-03-23T04:45:11;0.50;;;0.50;;
13764;SDS011;6953;48.810;9.204;2023-03-23T04:47:38;0.50;;;0.50;;
13764;SDS011;6953;48.810;9.204;2023-03-23T04:50:07;0.50;;;0.50;;
13764;SDS011;6953;48.810;9.204;2023-03-23T04:52:34;0.50;;;0.50;;
13764;SDS011;6953;48.810;9.204;2023-03-23T04:55:02;0.52;;;0.52;;
13764;SDS011;6953;48.810;9.204;2023-03-23T04:57:32;0.45;;;0.45;;
13764;SDS011;6953;48.810;9.204;2023-03-23T04:59:59;0.40;;;0.40;;
13764;SDS011;6953;48.810;9.204;2023-03-23T05:02:25;0.40;;;0.40;;
13764;SDS011;6953;48.810;9.204;2023-03-23T05:04:55;0.50;;;0.50;;
13764;SDS011;6953;48.810;9.204;2023-03-23T05:07:20;0.50;;;0.50;;
13764;SDS011;6953;48.810;9.204;2023-03-23T05:09:46;0.60;;;0.60;;
13764;SDS011;6953;48.810;9.204;2023-03-23T05:12:12;0.50;;;0.50;;
13764;SDS011;6953;48.810;9.204;2023-03-23T05:14:39;0.50;;;0.50;;
13764;SDS011;6953;48.810;9.204;2023-03-23T05:17:06;0.50;;;0.50;;
13764;SDS011;6953;48.810;9.204;2023-03-23T05:19:32;0.50;;;0.50;;
13764;SDS011;6953;48.810;9.204;2023-03-23T05:21:58;0.60;;;0.60;;
13764;SDS011;6953;48.810;9.204;2023-03-23T05:24:31;0.50;;;0.50;;
13764;SDS011;6953;48.810;9.204;2023-03-23T05:26:58;0.50;;;0.50;;
13764;SDS011;6953;48.810;9.204;2023-03-23T05:29:24;0.50;;;0.50;;
13764;SDS011;6953;48.810;9.204;2023-03-23T05:31:50;0.40;;;0.40;;
13764;SDS011;6953;48.810;9.204;2023-03-23T05:34:17;0.40;;;0.40;;
13764;SDS011;6953;48.810;9.204;2023-03-23T05:36:43;0.50;;;0.50;;
13764;SDS011;6953;48.810;9.204;2023-03-23T05:39:10;0.30;;;0.30;;
13764;SDS011;6953;48.810;9.204;2023-03-23T05:41:39;0.60;;;0.60;;
13764;SDS011;6953;48.810;9.204;2023-03-23T05:44:05;0.40;;;0.40;;
13764;SDS011;6953;48.810;9.204;2023-03-23T05:46:30;0.40;;;0.40;;
13764;SDS011;6953;48.810;9.204;2023-03-23T05:48:55;0.50;;;0.50;;
13764;SDS011;6953;48.810;9.204;2023-03-23T05:51:21;0.50;;;0.50;;
13764;SDS011;6953;48.810;9.204;2023-03-23T05:53:46;0.40;;;0.40;;
13764;SDS011;6953;48.810;9.204;2023-03-23T05:56:13;0.45;;;0.45;;
13764;SDS011;6953;48.810;9.204;2023-03-23T05:58:39;0.40;;;0.40;;
13764;SDS011;6953;48.810;9.204;2023-03-23T06:01:08;0.50;;;0.50;;
13764;SDS011;6953;48.810;9.204;2023-03-23T06:03:34;0.50;;;0.50;;
13764;SDS011;6953;48.810;9.204;2023-03-23T06:06:01;0.50;;;0.50;;
13764;SDS011;6953;48.810;9.204;2023-03-23T06:08:28;0.50;;;0.50;;
13764;SDS011;6953;48.810;9.204;2023-03-23T06:10:54;0.40;;;0.40;;
13764;SDS011;6953;48.810;9.204;2023-03-23T06:13:20;0.40;;;0.40;;
13764;SDS011;6953;48.810;9.204;2023-03-23T06:15:46;0.40;;;0.40;;
13764;SDS011;6953;48.810;9.204;2023-03-23T06:18:12;0.40;;;0.40;;
13764;SDS011;6953;48.810;9.204;2023-03-23T06:20:38;0.30;;;0.30;;
13764;SDS011;6953;48.810;9.204;2023-03-23T06:23:04;0.40;;;0.40;;
13764;SDS011;6953;48.810;9.204;2023-03-23T06:25:30;0.30;;;0.30;;
13764;SDS011;6953;48.810;9.204;2023-03-23T06:27:55;0.30;;;0.30;;
13764;SDS011;6953;48.810;9.204;2023-03-23T06:30:21;0.20;;;0.20;;
13764;SDS011;6953;48.810;9.204;2023-03-23T06:32:46;0.30;;;0.30;;
13764;SDS011;6953;48.810;9.204;2023-03-23T06:35:13;0.40;;;0.40;;
13764;SDS011;6953;48.810;9.204;2023-03-23T06:37:40;0.32;;;0.32;;
13764;SDS011;6953;48.810;9.204;2023-03-23T06:40:06;0.40;;;0.40;;
13764;SDS011;6953;48.810;9.204;2023-03-23T06:42:32;0.30;;;0.30;;
13764;SDS011;6953;48.810;9.204;2023-03-23T06:44:58;0.30;;;0.30;;
13764;SDS011;6953;48.810;9.204;2023-03-23T06:47:26;0.35;;;0.35;;
13764;SDS011;6953;48.810;9.204;2023-03-23T06:49:54;0.30;;;0.30;;
13764;SDS011;6953;48.810;9.204;2023-03-23T06:52:20;0.32;;;0.32;;
13764;SDS011;6953;48.810;9.204;2023-03-23T06:54:47;0.30;;;0.30;;
13764;SDS011;6953;48.810;9.204;2023-03-23T06:57:13;0.40;;;0.40;;
13764;SDS011;6953;48.810;9.204;2023-03-23T06:59:38;0.30;;;0.30;;
13764;SDS011;6953;48.810;9.204;2023-03-23T07:02:03;0.30;;;0.30;;
13764;SDS011;6953;48.810;9.204;2023-03-23T07:04:29;0.30;;;0.30;;
13764;SDS011;6953;48.810;9.204;2023-03-23T07:06:55;0.40;;;0.40;;
13764;SDS011;6953;48.810;9.204;2023-03-23T07:09:21;0.30;;;0.30;;
13764;SDS011;6953;48.810;9.204;2023-03-23T07:11:46;0.30;;;0.30;;
13764;SDS011;6953;48.810;9.204;2023-03-23T07:14:12;0.30;;;0.30;;
13764;SDS011;6953;48.810;9.204;2023-03-23T07:16:38;0.20;;;0.20;;
13764;SDS011;6953;48.810;9.204;2023-03-23T07:19:03;0.30;;;0.30;;
13764;SDS011;6953;48.810;9.204;2023-03-23T07:21:29;0.30;;;0.30;;
13764;SDS011;6953;48.810;9.204;2023-03-23T07:23:54;0.30;;;0.30;;
13764;SDS011;6953;48.810;9.204;2023-03-23T07:26:20;0.30;;;0.30;;
13764;SDS011;6953;48.810;9.204;2023-03-23T07:28:46;0.30;;;0.30;;
13764;SDS011;6953;48.810;9.204;2023-03-23T07:31:12;0.30;;;0.30;;
13764;SDS011;6953;48.810;9.204;2023-03-23T07:33:37;0.30;;;0.30;;
13764;SDS011;6953;48.810;9.204;2023-03-23T07:36:02;0.30;;;0.30;;
13764;SDS011;6953;48.810;9.204;2023-03-23T07:38:28;0.30;;;0.30;;
13764;SDS011;6953;48.810;9.204;2023-03-23T07:40:54;0.40;;;0.40;;
13764;SDS011;6953;48.810;9.204;2023-03-23T07:43:21;0.30;;;0.30;;
13764;SDS011;6953;48.810;9.204;2023-03-23T07:45:47;0.30;;;0.30;;
13764;SDS011;6953;48.810;9.204;2023-03-23T07:48:12;0.30;;;0.30;;
13764;SDS011;6953;48.810;9.204;2023-03-23T07:50:38;0.30;;;0.30;;
13764;SDS011;6953;48.810;9.204;2023-03-23T07:53:03;0.30;;;0.30;;
13764;SDS011;6953;48.810;9.204;2023-03-23T07:55:29;0.20;;;0.20;;
13764;SDS011;6953;48.810;9.204;2023-03-23T07:57:54;0.30;;;0.30;;
13764;SDS011;6953;48.810;9.204;2023-03-23T08:00:20;0.20;;;0.20;;
13764;SDS011;6953;48.810;9.204;2023-03-23T08:02:52;0.30;;;0.30;;
13764;SDS011;6953;48.810;9.204;2023-03-23T08:05:22;0.40;;;0.40;;
13764;SDS011;6953;48.810;9.204;2023-03-23T08:07:50;0.20;;;0.20;;
13764;SDS011;6953;48.810;9.204;2023-03-23T08:10:17;0.20;;;0.20;;
13764;SDS011;6953;48.810;9.204;2023-03-23T08:12:43;0.20;;;0.20;;
13764;SDS011;6953;48.810;9.204;2023-03-23T08:15:10;0.20;;;0.20;;
13764;SDS011;6953;48.810;9.204;2023-03-23T08:17:37;0.20;;;0.20;;
13764;SDS011;6953;48.810;9.204;2023-03-23T08:20:04;0.20;;;0.20;;
13764;SDS011;6953;48.810;9.204;2023-03-23T08:22:36;0.30;;;0.30;;
13764;SDS011;6953;48.810;9.204;2023-03-23T08:25:03;0.20;;;0.20;;
13764;SDS011;6953;48.810;9.204;2023-03-23T08:27:31;0.30;;;0.30;;
13764;SDS011;6953;48.810;9.204;2023-03-23T08:29:56;0.30;;;0.30;;
13764;SDS011;6953;48.810;9.204;2023-03-23T08:32:22;0.40;;;0.40;;
13764;SDS011;6953;48.810;9.204;2023-03-23T08:34:47;0.40;;;0.40;;
13764;SDS011;6953;48.810;9.204;2023-03-23T08:37:13;0.40;;;0.40;;
13764;SDS011;6953;48.810;9.204;2023-03-23T08:39:39;0.40;;;0.40;;
13764;SDS011;6953;48.810;9.204;2023-03-23T08:42:05;0.40;;;0.40;;
13764;SDS011;6953;48.810;9.204;2023-03-23T08:44:30;0.40;;;0.40;;
13764;SDS011;6953;48.810;9.204;2023-03-23T08:46:55;0.40;;;0.40;;
13764;SDS011;6953;48.810;9.204;2023-03-23T08:49:21;0.50;;;0.50;;
13764;SDS011;6953;48.810;9.204;2023-03-23T08:51:47;0.40;;;0.40;;
13764;SDS011;6953;48.810;9.204;2023-03-23T08:54:13;0.50;;;0.50;;
13764;SDS011;6953;48.810;9.204;2023-03-23T08:56:39;0.50;;;0.50;;
13764;SDS011;6953;48.810;9.204;2023-03-23T08:59:04;0.40;;;0.40;;
13764;SDS011;6953;48.810;9.204;2023-03-23T09:01:29;0.50;;;0.50;;
13764;SDS011;6953;48.810;9.204;2023-03-23T09:03:55;0.50;;;0.50;;
13764;SDS011;6953;48.810;9.204;2023-03-23T09:06:21;0.40;;;0.40;;
13764;SDS011;6953;48.810;9.204;2023-03-23T09:08:47;0.57;;;0.57;;
13764;SDS011;6953;48.810;9.204;2023-03-23T09:11:12;0.47;;;0.47;;
13764;SDS011;6953;48.810;9.204;2023-03-23T09:13:38;0.50;;;0.50;;
13764;SDS011;6953;48.810;9.204;2023-03-23T09:16:05;0.50;;;0.50;;
13764;SDS011;6953;48.810;9.204;2023-03-23T09:18:31;0.50;;;0.50;;
13764;SDS011;6953;48.810;9.204;2023-03-23T09:20:57;0.30;;;0.30;;
13764;SDS011;6953;48.810;9.204;2023-03-23T09:23:23;0.40;;;0.40;;
13764;SDS011;6953;48.810;9.204;2023-03-23T09:25:50;0.50;;;0.50;;
13764;SDS011;6953;48.810;9.204;2023-03-23T09:28:16;0.40;;;0.40;;
13764;SDS011;6953;48.810;9.204;2023-03-23T09:30:41;0.47;;;0.47;;
13764;SDS011;6953;48.810;9.204;2023-03-23T09:33:08;0.50;;;0.50;;
13764;SDS011;6953;48.810;9.204;2023-03-23T09:35:35;0.35;;;0.35;;
13764;SDS011;6953;48.810;9.204;2023-03-23T09:38:02;0.40;;;0.40;;
13764;SDS011;6953;48.810;9.204;2023-03-23T09:40:49;0.40;;;0.40;;
13764;SDS011;6953;48.810;9.204;2023-03-23T09:46:17;0.40;;;0.40;;
13764;SDS011;6953;48.810;9.204;2023-03-23T09:48:54;0.40;;;0.40;;
13764;SDS011;6953;48.810;9.204;2023-03-23T09:54:12;0.40;;;0.40;;
13764;SDS011;6953;48.810;9.204;2023-03-23T09:56:45;0.30;;;0.30;;
13764;SDS011;6953;48.810;9.204;2023-03-23T09:59:14;0.30;;;0.30;;
13764;SDS011;6953;48.810;9.204;2023-03-23T10:01:43;0.38;;;0.38;;
13764;SDS011;6953;48.810;9.204;2023-03-23T10:07:14;0.50;;;0.50;;
13764;SDS011;6953;48.810;9.204;2023-03-23T10:09:42;0.35;;;0.35;;
13764;SDS011;6953;48.810;9.204;2023-03-23T10:12:14;0.40;;;0.40;;
13764;SDS011;6953;48.810;9.204;2023-03-23T10:17:32;0.40;;;0.40;;
13764;SDS011;6953;48.810;9.204;2023-03-23T10:26:02;0.40;;;0.40;;
13764;SDS011;6953;48.810;9.204;2023-03-23T10:28:41;0.30;;;0.30;;
13764;SDS011;6953;48.810;9.204;2023-03-23T10:31:10;0.50;;;0.50;;
13764;SDS011;6953;48.810;9.204;2023-03-23T10:33:40;0.40;;;0.40;;
13764;SDS011;6953;48.810;9.204;2023-03-23T10:38:41;0.40;;;0.40;;
13764;SDS011;6953;48.810;9.204;2023-03-23T10:41:12;0.40;;;0.40;;
13764;SDS011;6953;48.810;9.204;2023-03-23T10:43:43;0.40;;;0.40;;
13764;SDS011;6953;48.810;9.204;2023-03-23T10:47:10;0.30;;;0.30;;
13764;SDS011;6953;48.810;9.204;2023-03-23T10:49:05;0.50;;;0.50;;
13764;SDS011;6953;48.810;9.204;2023-03-23T10:51:37;0.40;;;0.40;;
13764;SDS011;6953;48.810;9.204;2023-03-23T10:54:06;0.47;;;0.47;;
13764;SDS011;6953;48.810;9.204;2023-03-23T10:56:38;0.30;;;0.30;;
13764;SDS011;6953;48.810;9.204;2023-03-23T10:59:13;0.30;;;0.30;;
13764;SDS011;6953;48.810;9.204;2023-03-23T11:01:42;0.40;;;0.40;;
13764;SDS011;6953;48.810;9.204;2023-03-23T11:04:11;0.50;;;0.50;;
13764;SDS011;6953;48.810;9.204;2023-03-23T11:06:38;0.47;;;0.47;;
13764;SDS011;6953;48.810;9.204;2023-03-23T11:09:11;0.40;;;0.40;;
13764;SDS011;6953;48.810;9.204;2023-03-23T11:11:40;0.30;;;0.30;;
13764;SDS011;6953;48.810;9.204;2023-03-23T11:14:24;0.40;;;0.40;;
13764;SDS011;6953;48.810;9.204;2023-03-23T11:16:55;0.40;;;0.40;;
13764;SDS011;6953;48.810;9.204;2023-03-23T11:21:50;0.40;;;0.40;;
13764;SDS011;6953;48.810;9.204;2023-03-23T11:24:21;0.40;;;0.40;;
13764;SDS011;6953;48.810;9.204;2023-03-23T11:26:48;0.30;;;0.30;;
13764;SDS011;6953;48.810;9.204;2023-03-23T11:29:22;0.30;;;0.30;;
13764;SDS011;6953;48.810;9.204;2023-03-23T11:31:50;0.40;;;0.40;;
13764;SDS011;6953;48.810;9.204;2023-03-23T11:34:22;0.40;;;0.40;;
13764;SDS011;6953;48.810;9.204;2023-03-23T11:36:55;0.32;;;0.32;;
13764;SDS011;6953;48.810;9.204;2023-03-23T11:39:45;0.30;;;0.30;;
13764;SDS011;6953;48.810;9.204;2023-03-23T11:42:22;0.30;;;0.30;;
13764;SDS011;6953;48.810;9.204;2023-03-23T11:44:54;0.40;;;0.40;;
13764;SDS011;6953;48.810;9.204;2023-03-23T11:47:40;0.28;;;0.28;;
13764;SDS011;6953;48.810;9.204;2023-03-23T11:50:16;0.30;;;0.30;;
13764;SDS011;6953;48.810;9.204;2023-03-23T11:58:11;0.30;;;0.30;;
13764;SDS011;6953;48.810;9.204;2023-03-23T12:00:49;0.30;;;0.30;;
13764;SDS011;6953;48.810;9.204;2023-03-23T12:03:20;0.32;;;0.32;;
13764;SDS011;6953;48.810;9.204;2023-03-23T12:05:52;0.32;;;0.32;;
13764;SDS011;6953;48.810;9.204;2023-03-23T12:08:38;0.25;;;0.25;;
13764;SDS011;6953;48.810;9.204;2023-03-23T12:13:50;0.30;;;0.30;;
13764;SDS011;6953;48.810;9.204;2023-03-23T12:16:35;0.20;;;0.20;;
13764;SDS011;6953;48.810;9.204;2023-03-23T12:32:56;0.20;;;0.20;;
13764;SDS011;6953;48.810;9.204;2023-03-23T12:35:29;0.20;;;0.20;;
13764;SDS011;6953;48.810;9.204;2023-03-23T12:46:16;0.30;;;0.30;;
13764;SDS011;6953;48.810;9.204;2023-03-23T12:51:50;0.10;;;0.10;;
13764;SDS011;6953;48.810;9.204;2023-03-23T12:54:35;0.20;;;0.20;;
13764;SDS011;6953;48.810;9.204;2023-03-23T12:57:19;0.17;;;0.17;;
13764;SDS011;6953;48.810;9.204;2023-03-23T13:00:02;0.20;;;0.20;;
13764;SDS011;6953;48.810;9.204;2023-03-23T13:07:52;0.20;;;0.20;;
13764;SDS011;6953;48.810;9.204;2023-03-23T13:10:26;0.20;;;0.20;;
13764;SDS011;6953;48.810;9.204;2023-03-23T13:12:55;0.15;;;0.15;;
13764;SDS011;6953;48.810;9.204;2023-03-23T13:23:30;0.20;;;0.20;;
13764;SDS011;6953;48.810;9.204;2023-03-23T13:28:31;0.20;;;0.20;;
13764;SDS011;6953;48.810;9.204;2023-03-23T13:31:22;0.20;;;0.20;;
13764;SDS011;6953;48.810;9.204;2023-03-23T13:37:06;0.10;;;0.10;;
13764;SDS011;6953;48.810;9.204;2023-03-23T13:39:36;0.20;;;0.20;;
13764;SDS011;6953;48.810;9.204;2023-03-23T13:44:55;0.20;;;0.20;;
13764;SDS011;6953;48.810;9.204;2023-03-23T13:47:35;0.20;;;0.20;;
13764;SDS011;6953;48.810;9.204;2023-03-23T13:55:31;0.10;;;0.10;;
13764;SDS011;6953;48.810;9.204;2023-03-23T14:06:05;0.20;;;0.20;;
13764;SDS011;6953;48.810;9.204;2023-03-23T14:10:58;0.25;;;0.25;;
13764;SDS011;6953;48.810;9.204;2023-03-23T14:16:23;0.30;;;0.30;;
13764;SDS011;6953;48.810;9.204;2023-03-23T14:19:14;0.20;;;0.20;;
13764;SDS011;6953;48.810;9.204;2023-03-23T14:21:48;0.30;;;0.30;;
13764;SDS011;6953;48.810;9.204;2023-03-23T14:24:17;0.30;;;0.30;;
13764;SDS011;6953;48.810;9.204;2023-03-23T14:26:47;0.30;;;0.30;;
13764;SDS011;6953;48.810;9.204;2023-03-23T14:29:16;0.30;;;0.30;;
13764;SDS011;6953;48.810;9.204;2023-03-23T14:31:41;0.30;;;0.30;;
13764;SDS011;6953;48.810;9.204;2023-03-23T14:34:18;0.30;;;0.30;;
13764;SDS011;6953;48.810;9.204;2023-03-23T14:36:45;0.30;;;0.30;;
13764;SDS011;6953;48.810;9.204;2023-03-23T14:41:44;0.30;;;0.30;;
13764;SDS011;6953;48.810;9.204;2023-03-23T14:44:14;0.30;;;0.30;;
13764;SDS011;6953;48.810;9.204;2023-03-23T14:46:46;0.22;;;0.22;;
13764;SDS011;6953;48.810;9.204;2023-03-23T14:49:14;0.30;;;0.30;;
13764;SDS011;6953;48.810;9.204;2023-03-23T14:51:52;0.40;;;0.40;;
13764;SDS011;6953;48.810;9.204;2023-03-23T14:54:23;0.30;;;0.30;;
13764;SDS011;6953;48.810;9.204;2023-03-23T14:56:51;0.30;;;0.30;;
13764;SDS011;6953;48.810;9.204;2023-03-23T14:59:17;0.40;;;0.40;;
13764;SDS011;6953;48.810;9.204;2023-03-23T15:01:43;0.30;;;0.30;;
13764;SDS011;6953;48.810;9.204;2023-03-23T15:04:21;0.30;;;0.30;;
13764;SDS011;6953;48.810;9.204;2023-03-23T15:06:51;0.35;;;0.35;;
13764;SDS011;6953;48.810;9.204;2023-03-23T15:09:21;0.30;;;0.30;;
13764;SDS011;6953;48.810;9.204;2023-03-23T15:11:55;0.30;;;0.30;;
13764;SDS011;6953;48.810;9.204;2023-03-23T15:14:25;0.30;;;0.30;;
13764;SDS011;6953;48.810;9.204;2023-03-23T15:16:54;0.30;;;0.30;;
13764;SDS011;6953;48.810;9.204;2023-03-23T15:19:36;0.35;;;0.35;;
13764;SDS011;6953;48.810;9.204;2023-03-23T15:22:15;0.30;;;0.30;;
13764;SDS011;6953;48.810;9.204;2023-03-23T15:24:45;0.30;;;0.30;;
13764;SDS011;6953;48.810;9.204;2023-03-23T15:27:18;0.30;;;0.30;;
13764;SDS011;6953;48.810;9.204;2023-03-23T15:29:53;0.30;;;0.30;;
13764;SDS011;6953;48.810;9.204;2023-03-23T15:33:01;0.40;;;0.40;;
13764;SDS011;6953;48.810;9.204;2023-03-23T15:35:41;0.30;;;0.30;;
13764;SDS011;6953;48.810;9.204;2023-03-23T15:38:15;0.30;;;0.30;;
13764;SDS011;6953;48.810;9.204;2023-03-23T15:40:48;0.30;;;0.30;;
13764;SDS011;6953;48.810;9.204;2023-03-23T15:43:16;0.40;;;0.40;;
13764;SDS011;6953;48.810;9.204;2023-03-23T15:48:51;0.40;;;0.40;;
13764;SDS011;6953;48.810;9.204;2023-03-23T15:51:24;0.30;;;0.30;;
13764;SDS011;6953;48.810;9.204;2023-03-23T15:53:52;0.30;;;0.30;;
13764;SDS011;6953;48.810;9.204;2023-03-23T15:56:18;0.30;;;0.30;;
13764;SDS011;6953;48.810;9.204;2023-03-23T15:58:45;0.30;;;0.30;;
13764;SDS011;6953;48.810;9.204;2023-03-23T16:01:18;0.30;;;0.30;;
13764;SDS011;6953;48.810;9.204;2023-03-23T16:03:50;0.30;;;0.30;;
13764;SDS011;6953;48.810;9.204;2023-03-23T16:06:25;0.30;;;0.30;;
13764;SDS011;6953;48.810;9.204;2023-03-23T16:08:53;0.30;;;0.30;;
13764;SDS011;6953;48.810;9.204;2023-03-23T16:11:19;0.40;;;0.40;;
13764;SDS011;6953;48.810;9.204;2023-03-23T16:13:45;0.38;;;0.38;;
13764;SDS011;6953;48.810;9.204;2023-03-23T16:16:13;0.30;;;0.30;;
13764;SDS011;6953;48.810;9.204;2023-03-23T16:18:43;0.40;;;0.40;;
13764;SDS011;6953;48.810;9.204;2023-03-23T16:21:08;0.30;;;0.30;;
13764;SDS011;6953;48.810;9.204;2023-03-23T16:23:34;0.30;;;0.30;;
13764;SDS011;6953;48.810;9.204;2023-03-23T16:26:00;0.22;;;0.22;;
13764;SDS011;6953;48.810;9.204;2023-03-23T16:28:25;0.38;;;0.38;;
13764;SDS011;6953;48.810;9.204;2023-03-23T16:30:50;0.40;;;0.40;;
13764;SDS011;6953;48.810;9.204;2023-03-23T16:33:16;0.30;;;0.30;;
13764;SDS011;6953;48.810;9.204;2023-03-23T16:35:41;0.40;;;0.40;;
13764;SDS011;6953;48.810;9.204;2023-03-23T16:38:09;0.40;;;0.40;;
13764;SDS011;6953;48.810;9.204;2023-03-23T16:40:37;0.30;;;0.30;;
13764;SDS011;6953;48.810;9.204;2023-03-23T16:43:03;0.30;;;0.30;;
13764;SDS011;6953;48.810;9.204;2023-03-23T16:45:28;0.30;;;0.30;;
13764;SDS011;6953;48.810;9.204;2023-03-23T16:47:54;0.30;;;0.30;;
13764;SDS011;6953;48.810;9.204;2023-03-23T16:50:25;0.30;;;0.30;;
13764;SDS011;6953;48.810;9.204;2023-03-23T16:52:51;0.30;;;0.30;;
13764;SDS011;6953;48.810;9.204;2023-03-23T16:55:16;0.20;;;0.20;;
13764;SDS011;6953;48.810;9.204;2023-03-23T16:57:42;0.30;;;0.30;;
13764;SDS011;6953;48.810;9.204;2023-03-23T17:00:08;0.30;;;0.30;;
13764;SDS011;6953;48.810;9.204;2023-03-23T17:02:37;0.30;;;0.30;;
13764;SDS011;6953;48.810;9.204;2023-03-23T17:05:05;0.30;;;0.30;;
13764;SDS011;6953;48.810;9.204;2023-03-23T17:07:30;0.20;;;0.20;;
13764;SDS011;6953;48.810;9.204;2023-03-23T17:09:56;0.20;;;0.20;;
13764;SDS011;6953;48.810;9.204;2023-03-23T17:12:21;0.20;;;0.20;;
13764;SDS011;6953;48.810;9.204;2023-03-23T17:14:46;0.20;;;0.20;;
13764;SDS011;6953;48.810;9.204;2023-03-23T17:17:12;0.20;;;0.20;;